Time,TemperatureF,DewpointF,PressureIn,WindDirection,WindDirectionDegrees,WindSpeedMPH,WindSpeedGustMPH,Humidity,HourlyPrecipIn,Conditions,Clouds,dailyrainin,SoftwareType,DateUTC
2013-02-12 00:21:00,47.0,41.0,30.23,North,360,4.0,-999.0,78,0.00,,,-99.99,,2013-02-12 08:21:00,
2013-02-12 00:31:00,47.0,41.0,30.23,North,360,4.0,-999.0,78,0.00,,,-99.99,,2013-02-12 08:31:00,
2013-02-12 00:41:00,47.0,41.0,30.23,North,360,4.0,-999.0,78,0.00,,,-99.99,,2013-02-12 08:41:00,
2013-02-12 01:21:00,49.0,39.0,30.24,NNW,340,1.0,-999.0,67,0.00,,,-99.99,,2013-02-12 09:21:00,
2013-02-12 01:31:00,49.0,39.0,30.24,NNW,340,1.0,-999.0,67,0.00,,,-99.99,,2013-02-12 09:31:00,
2013-02-12 01:41:00,49.0,39.0,30.24,NNW,340,1.0,-999.0,67,0.00,,,-99.99,,2013-02-12 09:41:00,
2013-02-12 02:21:00,47.0,35.0,30.24,NNW,340,1.0,-999.0,63,0.00,,,-99.99,,2013-02-12 10:21:00,
2013-02-12 02:31:00,47.0,35.0,30.24,NNW,340,1.0,-999.0,63,0.00,,,-99.99,,2013-02-12 10:31:00,
2013-02-12 02:43:00,47.0,35.0,30.24,NNW,340,1.0,-999.0,63,0.00,,,-99.99,,2013-02-12 10:43:00,
2013-02-12 03:21:00,46.0,33.0,30.24,North,350,1.0,-999.0,60,0.00,,,-99.99,,2013-02-12 11:21:00,
2013-02-12 03:31:00,46.0,33.0,30.24,North,350,1.0,-999.0,60,0.00,,,-99.99,,2013-02-12 11:31:00,
2013-02-12 03:41:00,46.0,33.0,30.24,North,350,1.0,-999.0,60,0.00,,,-99.99,,2013-02-12 11:41:00,
2013-02-12 04:21:00,46.0,32.0,30.24,North,360,4.0,-999.0,58,0.00,,,-99.99,,2013-02-12 12:21:00,
2013-02-12 04:32:00,46.0,32.0,30.24,North,360,4.0,-999.0,58,0.00,,,-99.99,,2013-02-12 12:32:00,
2013-02-12 04:42:00,46.0,32.0,30.24,North,360,4.0,-999.0,58,0.00,,,-99.99,,2013-02-12 12:42:00,
2013-02-12 05:22:00,46.0,32.0,30.25,North,350,5.0,-999.0,57,0.00,,,-99.99,,2013-02-12 13:22:00,
2013-02-12 05:31:00,46.0,32.0,30.25,North,350,5.0,-999.0,57,0.00,,,-99.99,,2013-02-12 13:31:00,
2013-02-12 05:42:00,46.0,32.0,30.25,North,350,5.0,-999.0,57,0.00,,,-99.99,,2013-02-12 13:42:00,
2013-02-12 06:21:00,46.0,31.0,30.27,North,0,0.0,-999.0,55,0.00,,,-99.99,,2013-02-12 14:21:00,
2013-02-12 06:31:00,46.0,31.0,30.27,North,0,0.0,-999.0,55,0.00,,,-99.99,,2013-02-12 14:31:00,
2013-02-12 06:42:00,46.0,31.0,30.27,North,0,0.0,-999.0,55,0.00,,,-99.99,,2013-02-12 14:42:00,
2013-02-12 07:21:00,46.0,32.0,30.29,North,0,0.0,-999.0,58,0.00,,,-99.99,,2013-02-12 15:21:00,
2013-02-12 07:32:00,46.0,32.0,30.29,North,0,0.0,-999.0,58,0.00,,,-99.99,,2013-02-12 15:32:00,
2013-02-12 07:42:00,46.0,32.0,30.29,North,0,0.0,-999.0,58,0.00,,,-99.99,,2013-02-12 15:42:00,
2013-02-12 08:22:00,48.0,34.0,30.31,NNW,340,3.0,-999.0,57,0.00,,,-99.99,,2013-02-12 16:22:00,
2013-02-12 08:31:00,48.0,34.0,30.31,NNW,340,3.0,-999.0,57,0.00,,,-99.99,,2013-02-12 16:31:00,
2013-02-12 08:41:00,48.0,34.0,30.31,NNW,340,3.0,-999.0,57,0.00,,,-99.99,,2013-02-12 16:41:00,
2013-02-12 09:21:00,53.0,38.0,30.33,North,360,1.0,-999.0,56,0.00,,,-99.99,,2013-02-12 17:21:00,
2013-02-12 09:32:00,53.0,38.0,30.33,North,360,1.0,-999.0,56,0.00,,,-99.99,,2013-02-12 17:32:00,
2013-02-12 09:41:00,53.0,38.0,30.33,North,360,1.0,-999.0,56,0.00,,,-99.99,,2013-02-12 17:41:00,
2013-02-12 10:22:00,58.0,42.0,30.34,North,0,0.0,-999.0,55,0.00,,,-99.99,,2013-02-12 18:22:00,
2013-02-12 10:31:00,58.0,42.0,30.34,North,0,0.0,-999.0,55,0.00,,,-99.99,,2013-02-12 18:31:00,
2013-02-12 10:41:00,58.0,42.0,30.34,North,0,0.0,-999.0,55,0.00,,,-99.99,,2013-02-12 18:41:00,
2013-02-12 11:21:00,57.0,45.0,30.33,SW,230,5.0,-999.0,64,0.00,,,-99.99,,2013-02-12 19:21:00,
2013-02-12 11:31:00,57.0,45.0,30.33,SW,230,5.0,-999.0,64,0.00,,,-99.99,,2013-02-12 19:31:00,
2013-02-12 11:41:00,57.0,45.0,30.33,SW,230,5.0,-999.0,64,0.00,,,-99.99,,2013-02-12 19:41:00,
2013-02-12 12:21:00,58.0,49.0,30.30,SSW,210,13.0,-999.0,71,0.00,,,-99.99,,2013-02-12 20:21:00,
2013-02-12 12:31:00,58.0,49.0,30.30,SSW,210,13.0,-999.0,71,0.00,,,-99.99,,2013-02-12 20:31:00,
2013-02-12 12:41:00,58.0,49.0,30.30,SSW,210,13.0,-999.0,71,0.00,,,-99.99,,2013-02-12 20:41:00,
2013-02-12 13:21:00,60.0,49.0,30.27,SSW,210,10.0,-999.0,67,0.00,,,-99.99,,2013-02-12 21:21:00,
2013-02-12 13:31:00,60.0,49.0,30.27,SSW,210,10.0,-999.0,67,0.00,,,-99.99,,2013-02-12 21:31:00,
2013-02-12 13:41:00,60.0,49.0,30.27,SSW,210,10.0,-999.0,67,0.00,,,-99.99,,2013-02-12 21:41:00,
2013-02-12 15:21:00,59.0,51.0,30.25,South,180,3.0,-999.0,76,0.00,,,-99.99,,2013-02-12 23:21:00,
2013-02-12 15:31:00,59.0,51.0,30.25,South,180,3.0,-999.0,76,0.00,,,-99.99,,2013-02-12 23:31:00,
2013-02-12 15:41:00,59.0,51.0,30.25,South,180,3.0,-999.0,76,0.00,,,-99.99,,2013-02-12 23:41:00,
2013-02-12 16:21:00,59.0,51.0,30.23,NNW,340,5.0,-999.0,75,0.00,,,-99.99,,2013-02-13 00:21:00,
2013-02-12 16:32:00,59.0,51.0,30.23,NNW,340,5.0,-999.0,75,0.00,,,-99.99,,2013-02-13 00:32:00,
2013-02-12 16:42:00,59.0,51.0,30.23,NNW,340,5.0,-999.0,75,0.00,,,-99.99,,2013-02-13 00:42:00,
2013-02-12 17:21:00,57.0,50.0,30.23,NW,320,4.0,-999.0,77,0.00,,,-99.99,,2013-02-13 01:21:00,
2013-02-12 17:31:00,57.0,50.0,30.23,NW,320,4.0,-999.0,77,0.00,,,-99.99,,2013-02-13 01:31:00,
2013-02-12 17:42:00,57.0,50.0,30.23,NW,320,4.0,-999.0,77,0.00,,,-99.99,,2013-02-13 01:42:00,
2013-02-12 18:21:00,55.0,48.0,30.23,NW,310,4.0,-999.0,77,0.00,,,-99.99,,2013-02-13 02:21:00,
2013-02-12 18:31:00,55.0,48.0,30.23,NW,310,4.0,-999.0,77,0.00,,,-99.99,,2013-02-13 02:31:00,
2013-02-12 18:41:00,55.0,48.0,30.23,NW,310,4.0,-999.0,77,0.00,,,-99.99,,2013-02-13 02:41:00,
2013-02-12 19:21:00,54.0,41.0,30.24,NW,310,2.0,-999.0,62,0.00,,,-99.99,,2013-02-13 03:21:00,
2013-02-12 19:32:00,54.0,41.0,30.24,NW,310,2.0,-999.0,62,0.00,,,-99.99,,2013-02-13 03:32:00,
2013-02-12 19:41:00,54.0,41.0,30.24,NW,310,2.0,-999.0,62,0.00,,,-99.99,,2013-02-13 03:41:00,
2013-02-12 20:21:00,54.0,43.0,30.25,NW,310,2.0,-999.0,66,0.00,,,-99.99,,2013-02-13 04:21:00,
2013-02-12 20:31:00,54.0,43.0,30.25,NW,310,2.0,-999.0,66,0.00,,,-99.99,,2013-02-13 04:31:00,
2013-02-12 20:41:00,54.0,43.0,30.25,NW,310,2.0,-999.0,66,0.00,,,-99.99,,2013-02-13 04:41:00,
2013-02-12 21:22:00,53.0,44.0,30.26,North,0,0.0,-999.0,72,0.00,,,-99.99,,2013-02-13 05:22:00,
2013-02-12 21:31:00,53.0,44.0,30.26,North,0,0.0,-999.0,72,0.00,,,-99.99,,2013-02-13 05:31:00,
2013-02-12 21:41:00,53.0,44.0,30.26,North,0,0.0,-999.0,72,0.00,,,-99.99,,2013-02-13 05:41:00,
2013-02-12 22:21:00,52.0,43.0,30.27,NNW,330,3.0,-999.0,71,0.00,,,-99.99,,2013-02-13 06:21:00,
2013-02-12 22:31:00,52.0,43.0,30.27,NNW,330,3.0,-999.0,71,0.00,,,-99.99,,2013-02-13 06:31:00,
2013-02-12 22:41:00,52.0,43.0,30.27,NNW,330,3.0,-999.0,71,0.00,,,-99.99,,2013-02-13 06:41:00,
2013-02-12 23:21:00,49.0,42.0,30.26,North,0,0.0,-999.0,77,0.00,,,-99.99,,2013-02-13 07:21:00,
2013-02-12 23:31:00,49.0,42.0,30.26,North,0,0.0,-999.0,77,0.00,,,-99.99,,2013-02-13 07:31:00,
2013-02-12 23:41:00,49.0,42.0,30.26,North,0,0.0,-999.0,77,0.00,,,-99.99,,2013-02-13 07:41:00,